createdAt,value
2023-05-21T00:01:49.562Z,24.39
2023-05-21T00:04:15.959Z,24.40
2023-05-21T00:06:42.409Z,24.37
2023-05-21T00:09:08.841Z,24.37
2023-05-21T00:11:35.413Z,24.39
2023-05-21T00:14:01.844Z,24.38
2023-05-21T00:16:28.395Z,24.40
2023-05-21T00:18:59.685Z,24.38
2023-05-21T00:21:26.348Z,24.40
2023-05-21T00:23:52.880Z,24.38
2023-05-21T00:26:19.265Z,24.39
2023-05-21T00:28:45.776Z,24.35
2023-05-21T00:31:12.175Z,24.38
2023-05-21T00:33:38.574Z,24.37
2023-05-21T00:36:05.009Z,24.37
2023-05-21T00:38:31.404Z,24.39
2023-05-21T00:40:57.750Z,24.36
2023-05-21T00:43:24.120Z,24.35
2023-05-21T00:45:50.485Z,24.37
2023-05-21T00:48:16.907Z,24.37
2023-05-21T00:50:43.276Z,24.35
2023-05-21T00:53:09.662Z,24.35
2023-05-21T00:55:36.264Z,24.37
2023-05-21T00:58:02.784Z,24.38
2023-05-21T01:00:29.184Z,24.37
2023-05-21T01:02:55.592Z,24.38
2023-05-21T01:05:22.007Z,24.37
2023-05-21T01:07:48.455Z,24.36
2023-05-21T01:10:14.875Z,24.37
2023-05-21T01:12:41.284Z,24.34
2023-05-21T01:15:07.669Z,24.38
2023-05-21T01:17:34.224Z,24.34
2023-05-21T01:20:00.766Z,24.34
2023-05-21T01:22:27.217Z,24.31
2023-05-21T01:24:53.616Z,24.35
2023-05-21T01:27:20.085Z,24.34
2023-05-21T01:29:46.462Z,24.34
2023-05-21T01:32:13.330Z,24.35
2023-05-21T01:34:39.854Z,24.30
2023-05-21T01:37:06.584Z,24.34
2023-05-21T01:39:33.015Z,24.35
2023-05-21T01:41:59.395Z,24.34
2023-05-21T01:44:25.769Z,24.32
2023-05-21T01:46:52.197Z,24.29
2023-05-21T01:49:18.670Z,24.32
2023-05-21T01:51:45.033Z,24.33
2023-05-21T01:54:11.412Z,24.32
2023-05-21T01:56:37.975Z,24.30
2023-05-21T01:59:04.409Z,24.33
2023-05-21T02:01:30.932Z,24.30
2023-05-21T02:03:57.449Z,24.32
2023-05-21T02:06:24.042Z,24.35
2023-05-21T02:08:50.449Z,24.33
2023-05-21T02:11:17.092Z,24.29
2023-05-21T02:13:43.517Z,24.30
2023-05-21T02:16:10.036Z,24.31
2023-05-21T02:18:36.512Z,24.28
2023-05-21T02:21:02.960Z,24.30
2023-05-21T02:23:29.375Z,24.33
2023-05-21T02:25:55.756Z,24.33
2023-05-21T02:28:23.949Z,24.28
2023-05-21T02:30:50.389Z,24.33
2023-05-21T02:33:16.761Z,24.30
2023-05-21T02:35:43.122Z,24.32
2023-05-21T02:38:09.508Z,24.31
2023-05-21T02:40:35.901Z,24.30
2023-05-21T02:43:02.307Z,24.25
2023-05-21T02:45:28.888Z,24.27
2023-05-21T02:47:55.340Z,24.30
2023-05-21T02:50:21.755Z,24.30
2023-05-21T02:52:48.255Z,24.25
2023-05-21T02:55:14.648Z,24.27
2023-05-21T02:57:41.023Z,24.28
2023-05-21T03:00:07.489Z,24.30
2023-05-21T03:02:33.960Z,24.27
2023-05-21T03:05:00.439Z,24.27
2023-05-21T03:07:26.818Z,24.26
2023-05-21T03:09:53.292Z,24.24
2023-05-21T03:12:19.723Z,24.28
2023-05-21T03:14:46.113Z,24.29
2023-05-21T03:17:12.517Z,24.28
2023-05-21T03:19:38.878Z,24.23
2023-05-21T03:22:05.256Z,24.26
2023-05-21T03:24:31.654Z,24.28
2023-05-21T03:26:58.057Z,24.29
2023-05-21T03:29:24.436Z,24.29
2023-05-21T03:31:50.953Z,24.26
2023-05-21T03:34:17.441Z,24.25
2023-05-21T03:36:43.811Z,24.24
2023-05-21T03:39:10.162Z,24.25
2023-05-21T03:41:36.683Z,24.27
2023-05-21T03:44:03.088Z,24.26
2023-05-21T03:46:29.478Z,24.24
2023-05-21T03:48:55.921Z,24.24
2023-05-21T03:51:22.292Z,24.25
2023-05-21T03:53:48.655Z,24.25
2023-05-21T03:56:15.047Z,24.27
2023-05-21T03:58:41.473Z,24.27
2023-05-21T04:01:07.879Z,24.26
2023-05-21T04:03:34.481Z,24.21
2023-05-21T04:06:01.022Z,24.24
2023-05-21T04:08:27.468Z,24.22
2023-05-21T04:10:53.890Z,24.22
2023-05-21T04:13:20.311Z,24.23
2023-05-21T04:15:47.012Z,24.22
2023-05-21T04:18:13.558Z,24.24
2023-05-21T04:20:40.298Z,24.20
2023-05-21T04:23:06.710Z,24.24
2023-05-21T04:25:33.191Z,24.24
2023-05-21T04:27:59.613Z,24.24
2023-05-21T04:30:26.459Z,24.23
2023-05-21T04:32:53.033Z,24.24
2023-05-21T04:35:19.422Z,24.25
2023-05-21T04:37:45.805Z,24.25
2023-05-21T04:40:12.190Z,24.23
2023-05-21T04:42:38.555Z,24.23
2023-05-21T04:45:05.206Z,24.23
2023-05-21T04:47:31.641Z,24.23
2023-05-21T04:49:57.999Z,24.23
2023-05-21T04:52:24.353Z,24.25
2023-05-21T04:54:50.727Z,24.26
2023-05-21T04:57:17.203Z,24.24
2023-05-21T04:59:43.571Z,24.27
2023-05-21T05:02:10.002Z,24.25
2023-05-21T05:04:36.414Z,24.25
2023-05-21T05:07:02.997Z,24.28
2023-05-21T05:09:29.368Z,24.26
2023-05-21T05:11:55.748Z,24.25
2023-05-21T05:14:22.155Z,24.25
2023-05-21T05:16:48.612Z,24.26
2023-05-21T05:19:15.121Z,24.29
2023-05-21T05:21:41.555Z,24.29
2023-05-21T05:24:08.060Z,24.29
2023-05-21T05:26:34.478Z,24.29
2023-05-21T05:29:00.938Z,24.30
2023-05-21T05:31:27.334Z,24.31
2023-05-21T05:33:53.737Z,24.30
2023-05-21T05:36:20.137Z,24.32
2023-05-21T05:38:46.517Z,24.31
2023-05-21T05:41:12.936Z,24.34
2023-05-21T05:43:39.338Z,24.34
2023-05-21T05:46:05.766Z,24.36
2023-05-21T05:48:32.327Z,24.37
2023-05-21T05:50:58.823Z,24.34
2023-05-21T05:53:25.191Z,24.37
2023-05-21T05:55:51.610Z,24.36
2023-05-21T05:58:18.063Z,24.37
2023-05-21T06:00:44.458Z,24.37
2023-05-21T06:03:10.956Z,24.40
2023-05-21T06:05:37.749Z,24.38
2023-05-21T06:08:04.352Z,24.39
2023-05-21T06:10:30.837Z,24.40
2023-05-21T06:12:57.257Z,24.36
2023-05-21T06:15:23.669Z,24.41
2023-05-21T06:17:50.099Z,24.38
2023-05-21T06:20:16.482Z,24.40
2023-05-21T06:22:42.851Z,24.37
2023-05-21T06:25:09.310Z,24.36
2023-05-21T06:27:36.845Z,24.43
2023-05-21T06:30:03.335Z,24.42
2023-05-21T06:32:29.842Z,24.46
2023-05-21T06:34:56.315Z,24.42
2023-05-21T06:37:24.298Z,24.46
2023-05-21T06:39:52.405Z,24.42
2023-05-21T06:42:18.821Z,24.48
2023-05-21T06:44:45.344Z,24.50
2023-05-21T06:47:11.766Z,24.51
2023-05-21T06:49:38.169Z,24.54
2023-05-21T06:52:04.524Z,24.53
2023-05-21T06:54:30.955Z,24.57
2023-05-21T06:56:57.361Z,24.60
2023-05-21T06:59:23.750Z,24.69
2023-05-21T07:01:50.273Z,24.74
2023-05-21T07:04:17.080Z,24.83
2023-05-21T07:06:43.672Z,24.89
2023-05-21T07:09:10.094Z,24.85
2023-05-21T07:11:36.514Z,24.85
2023-05-21T07:14:02.892Z,24.89
2023-05-21T07:16:29.322Z,24.94
2023-05-21T07:18:55.773Z,25.04
2023-05-21T07:21:22.194Z,25.16
2023-05-21T07:23:48.615Z,25.22
2023-05-21T07:26:15.055Z,25.17
2023-05-21T07:28:41.469Z,25.09
2023-05-21T07:31:07.956Z,25.07
2023-05-21T07:33:34.538Z,25.17
2023-05-21T07:36:00.951Z,25.14
2023-05-21T07:38:27.421Z,25.18
2023-05-21T07:40:53.789Z,25.26
2023-05-21T07:43:20.169Z,25.37
2023-05-21T07:45:46.622Z,25.40
2023-05-21T07:48:12.978Z,25.39
2023-05-21T07:50:39.380Z,25.45
2023-05-21T07:53:06.028Z,25.50
2023-05-21T07:55:32.435Z,25.50
2023-05-21T07:57:58.845Z,25.52
2023-05-21T08:00:25.254Z,25.54
2023-05-21T08:02:51.708Z,25.58
2023-05-21T08:05:18.260Z,25.63
2023-05-21T08:07:44.687Z,25.66
2023-05-21T08:10:11.061Z,25.77
2023-05-21T08:12:37.472Z,25.72
2023-05-21T08:15:03.842Z,25.73
2023-05-21T08:17:30.431Z,25.67
2023-05-21T08:19:56.820Z,25.72
2023-05-21T08:22:23.181Z,25.76
2023-05-21T08:24:49.604Z,25.77
2023-05-21T08:27:16.059Z,25.70
2023-05-21T08:29:42.437Z,25.65
2023-05-21T08:32:08.944Z,25.76
2023-05-21T08:34:35.438Z,25.84
2023-05-21T08:37:01.800Z,25.85
2023-05-21T08:39:28.163Z,25.88
2023-05-21T08:41:54.543Z,25.90
2023-05-21T08:44:21.019Z,25.75
2023-05-21T08:46:47.376Z,25.79
2023-05-21T08:49:13.783Z,25.80
2023-05-21T08:51:40.259Z,25.91
2023-05-21T08:54:06.720Z,25.93
2023-05-21T08:56:33.099Z,25.96
2023-05-21T08:58:59.462Z,26.07
2023-05-21T09:01:26.641Z,26.15
2023-05-21T09:03:54.541Z,26.14
2023-05-21T09:06:25.662Z,26.09
2023-05-21T09:08:52.077Z,26.16
2023-05-21T09:11:18.452Z,26.05
2023-05-21T09:13:44.819Z,26.02
2023-05-21T09:16:11.213Z,26.12
2023-05-21T09:18:37.884Z,26.17
2023-05-21T09:21:04.327Z,26.15
2023-05-21T09:23:30.829Z,26.17
2023-05-21T09:25:57.315Z,26.05
2023-05-21T09:28:23.664Z,26.25
2023-05-21T09:30:50.059Z,26.12
2023-05-21T09:33:16.420Z,26.14
2023-05-21T09:35:42.775Z,26.00
2023-05-21T09:38:09.134Z,26.00
2023-05-21T09:40:35.803Z,26.16
2023-05-21T09:43:02.610Z,25.99
2023-05-21T09:45:29.009Z,26.04
2023-05-21T09:47:55.432Z,26.15
2023-05-21T09:50:21.929Z,26.10
2023-05-21T09:52:48.337Z,25.96
2023-05-21T09:55:14.855Z,26.11
2023-05-21T09:57:41.325Z,26.18
2023-05-21T10:00:07.702Z,26.11
2023-05-21T10:02:34.090Z,26.07
2023-05-21T10:05:00.466Z,26.02
2023-05-21T10:07:26.915Z,26.08
2023-05-21T10:09:53.565Z,26.11
2023-05-21T10:12:19.949Z,25.97
2023-05-21T10:14:46.301Z,25.84
2023-05-21T10:17:12.654Z,25.92
2023-05-21T10:19:39.013Z,25.93
2023-05-21T10:22:05.421Z,25.85
2023-05-21T10:24:32.062Z,25.82
2023-05-21T10:26:58.469Z,25.75
2023-05-21T10:29:24.903Z,25.82
2023-05-21T10:31:51.323Z,25.85
2023-05-21T10:34:17.749Z,25.94
2023-05-21T10:36:44.152Z,25.81
2023-05-21T10:39:10.560Z,25.79
2023-05-21T10:41:36.959Z,25.73
2023-05-21T10:44:03.485Z,25.80
2023-05-21T10:46:29.861Z,25.84
2023-05-21T10:48:56.368Z,25.85
2023-05-21T10:51:22.789Z,25.82
2023-05-21T10:53:49.632Z,25.81
2023-05-21T10:56:16.011Z,25.84
2023-05-21T10:58:42.412Z,25.79
2023-05-21T11:01:08.874Z,25.77
2023-05-21T11:03:37.761Z,25.78
2023-05-21T11:06:04.485Z,25.80
2023-05-21T11:08:30.859Z,25.82
2023-05-21T11:10:57.216Z,25.82
2023-05-21T11:13:23.654Z,25.75
2023-05-21T11:15:50.092Z,25.75
2023-05-21T11:18:16.478Z,25.77
2023-05-21T11:20:42.840Z,25.79
2023-05-21T11:23:09.408Z,25.78
2023-05-21T11:25:35.832Z,25.78
2023-05-21T11:28:02.262Z,25.75
2023-05-21T11:30:28.685Z,25.74
2023-05-21T11:32:55.216Z,25.73
2023-05-21T11:35:21.654Z,25.73
2023-05-21T11:37:48.164Z,25.76
2023-05-21T11:40:14.566Z,25.70
2023-05-21T11:42:40.946Z,25.76
2023-05-21T11:45:07.422Z,25.65
2023-05-21T11:47:33.909Z,25.67
2023-05-21T11:50:00.380Z,25.68
2023-05-21T11:52:26.907Z,25.69
2023-05-21T11:54:53.340Z,25.67
2023-05-21T11:57:19.942Z,25.69
2023-05-21T11:59:46.362Z,25.63
2023-05-21T12:02:12.739Z,25.57
2023-05-21T12:04:39.143Z,25.62
2023-05-21T12:07:05.534Z,25.70
2023-05-21T12:09:31.974Z,25.61
2023-05-21T12:11:58.340Z,25.61
2023-05-21T12:14:24.887Z,25.60
2023-05-21T12:16:51.429Z,25.58
2023-05-21T12:19:17.902Z,25.58
2023-05-21T12:21:44.389Z,25.58
2023-05-21T12:24:10.792Z,25.54
2023-05-21T12:26:37.368Z,25.48
2023-05-21T12:29:03.777Z,25.49
2023-05-21T12:31:30.266Z,25.53
2023-05-21T12:33:56.832Z,25.53
2023-05-21T12:36:23.207Z,25.49
2023-05-21T12:38:49.688Z,25.52
2023-05-21T12:41:16.048Z,25.46
2023-05-21T12:43:42.557Z,25.39
2023-05-21T12:46:09.183Z,25.44
2023-05-21T12:48:35.664Z,25.49
2023-05-21T12:51:02.459Z,25.50
2023-05-21T12:53:29.144Z,25.53
2023-05-21T12:55:55.780Z,25.49
2023-05-21T12:58:22.421Z,25.59
2023-05-21T13:00:48.823Z,25.54
2023-05-21T13:03:15.270Z,25.52
2023-05-21T13:05:41.690Z,25.55
2023-05-21T13:08:08.066Z,25.52
2023-05-21T13:10:34.754Z,25.50
2023-05-21T13:13:01.670Z,25.49
2023-05-21T13:15:28.127Z,25.47
2023-05-21T13:17:56.822Z,25.47
2023-05-21T13:20:23.567Z,25.53
2023-05-21T13:22:49.969Z,25.56
2023-05-21T13:25:16.403Z,25.51
2023-05-21T13:27:42.799Z,25.53
2023-05-21T13:30:09.177Z,25.48
2023-05-21T13:32:35.651Z,25.54
2023-05-21T13:35:02.153Z,25.44
2023-05-21T13:37:28.559Z,25.49
2023-05-21T13:39:54.940Z,25.45
2023-05-21T13:42:21.359Z,25.44
2023-05-21T13:44:47.749Z,25.44
2023-05-21T13:47:14.155Z,25.49
2023-05-21T13:49:40.547Z,25.43
2023-05-21T13:52:07.011Z,25.50
2023-05-21T13:54:33.428Z,25.50
2023-05-21T13:56:59.874Z,25.45
2023-05-21T13:59:26.266Z,25.51
2023-05-21T14:01:52.749Z,25.52
2023-05-21T14:04:19.140Z,25.49
2023-05-21T14:06:45.662Z,25.50
2023-05-21T14:09:12.181Z,25.46
2023-05-21T14:11:38.579Z,25.49
2023-05-21T14:14:04.940Z,25.48
2023-05-21T14:16:31.417Z,25.49
2023-05-21T14:18:57.873Z,25.48
2023-05-21T14:21:24.285Z,25.46
2023-05-21T14:23:50.710Z,25.47
2023-05-21T14:26:17.103Z,25.45
2023-05-21T14:28:43.468Z,25.43
2023-05-21T14:31:09.855Z,25.47
2023-05-21T14:33:36.253Z,25.45
2023-05-21T14:36:02.609Z,25.49
2023-05-21T14:38:28.994Z,25.48
2023-05-21T14:40:55.411Z,25.48
2023-05-21T14:43:21.831Z,25.53
2023-05-21T14:45:48.218Z,25.50
2023-05-21T14:48:14.608Z,25.50
2023-05-21T14:50:40.975Z,25.49
2023-05-21T14:53:07.367Z,25.49
2023-05-21T14:55:35.408Z,25.48
2023-05-21T14:58:03.244Z,25.52
2023-05-21T15:00:29.612Z,25.54
2023-05-21T15:02:57.326Z,25.45
2023-05-21T15:05:23.973Z,25.48
2023-05-21T15:07:50.380Z,25.44
2023-05-21T15:10:18.559Z,25.43
2023-05-21T15:12:45.146Z,25.47
2023-05-21T15:15:11.534Z,25.48
2023-05-21T15:17:37.942Z,25.45
2023-05-21T15:20:04.366Z,25.49
2023-05-21T15:22:30.806Z,25.50
2023-05-21T15:24:57.298Z,25.51
2023-05-21T15:27:23.667Z,25.51
2023-05-21T15:29:50.377Z,25.48
2023-05-21T15:32:16.740Z,25.51
2023-05-21T15:34:43.302Z,25.50
2023-05-21T15:37:09.873Z,25.50
2023-05-21T15:39:36.281Z,25.47
2023-05-21T15:42:02.709Z,25.49
2023-05-21T15:44:29.155Z,25.48
2023-05-21T15:46:55.588Z,25.45
2023-05-21T15:49:21.988Z,25.48
2023-05-21T15:51:48.388Z,25.49
2023-05-21T15:54:14.808Z,25.48
2023-05-21T15:56:41.223Z,25.47
2023-05-21T15:59:07.636Z,25.44
2023-05-21T16:01:34.068Z,25.45
2023-05-21T16:04:00.560Z,25.45
2023-05-21T16:06:26.984Z,25.47
2023-05-21T16:08:53.414Z,25.44
2023-05-21T16:11:19.777Z,25.48
2023-05-21T16:13:46.203Z,25.47
2023-05-21T16:16:12.649Z,25.45
2023-05-21T16:18:39.046Z,25.43
2023-05-21T16:21:05.487Z,25.43
2023-05-21T16:23:31.913Z,25.43
2023-05-21T16:25:58.286Z,25.43
2023-05-21T16:28:24.750Z,25.43
2023-05-21T16:30:51.125Z,25.45
2023-05-21T16:33:17.499Z,25.39
2023-05-21T16:35:43.954Z,25.44
2023-05-21T16:38:10.305Z,25.43
2023-05-21T16:40:36.790Z,25.41
2023-05-21T16:43:03.459Z,25.42
2023-05-21T16:45:29.914Z,25.47
2023-05-21T16:47:56.405Z,25.44
2023-05-21T16:50:22.839Z,25.38
2023-05-21T16:52:49.430Z,25.42
2023-05-21T16:55:15.854Z,25.40
2023-05-21T16:57:42.281Z,25.41
2023-05-21T17:00:08.779Z,25.42
2023-05-21T17:02:35.270Z,25.42
2023-05-21T17:05:01.698Z,25.42
2023-05-21T17:07:28.088Z,25.39
2023-05-21T17:09:54.651Z,25.41
2023-05-21T17:12:21.158Z,25.41
2023-05-21T17:14:47.609Z,25.42
2023-05-21T17:17:13.979Z,25.42
2023-05-21T17:19:41.070Z,25.44
2023-05-21T17:22:08.437Z,25.44
2023-05-21T17:24:34.819Z,25.47
2023-05-21T17:27:01.198Z,25.47
2023-05-21T17:29:27.813Z,25.47
2023-05-21T17:31:54.367Z,25.48
2023-05-21T17:34:21.039Z,25.45
2023-05-21T17:36:47.425Z,25.40
2023-05-21T17:39:13.839Z,25.41
2023-05-21T17:41:40.213Z,25.41
2023-05-21T17:44:06.699Z,25.40
2023-05-21T17:46:33.142Z,25.37
2023-05-21T17:48:59.621Z,25.38
2023-05-21T17:51:26.049Z,25.34
2023-05-21T17:53:52.442Z,25.32
2023-05-21T17:56:18.800Z,25.32
2023-05-21T17:58:45.271Z,25.31
2023-05-21T18:01:11.700Z,25.31
2023-05-21T18:03:38.123Z,25.35
2023-05-21T18:06:04.985Z,25.30
2023-05-21T18:08:31.592Z,25.30
2023-05-21T18:10:57.980Z,25.27
2023-05-21T18:13:24.469Z,25.27
2023-05-21T18:15:50.906Z,25.29
2023-05-21T18:18:19.842Z,25.26
2023-05-21T18:20:47.170Z,25.29
2023-05-21T18:23:13.589Z,25.32
2023-05-21T18:25:39.953Z,25.33
2023-05-21T18:28:06.354Z,25.31
2023-05-21T18:30:32.723Z,25.33
2023-05-21T18:32:59.149Z,25.31
2023-05-21T18:35:25.654Z,25.32
2023-05-21T18:37:52.023Z,25.34
2023-05-21T18:40:18.467Z,25.32
2023-05-21T18:42:44.916Z,25.26
2023-05-21T18:45:11.338Z,25.31
2023-05-21T18:47:37.757Z,25.32
2023-05-21T18:50:04.125Z,25.30
2023-05-21T18:52:30.492Z,25.30
2023-05-21T18:54:56.980Z,25.30
2023-05-21T18:57:23.376Z,25.31
2023-05-21T18:59:49.832Z,25.30
2023-05-21T19:02:16.298Z,25.30
2023-05-21T19:04:42.658Z,25.30
2023-05-21T19:07:09.020Z,25.25
2023-05-21T19:09:35.456Z,25.25
2023-05-21T19:12:01.867Z,25.25
2023-05-21T19:14:28.438Z,25.26
2023-05-21T19:16:54.874Z,25.23
2023-05-21T19:19:21.317Z,25.20
2023-05-21T19:21:47.717Z,25.21
2023-05-21T19:24:14.146Z,25.29
2023-05-21T19:26:40.584Z,25.22
2023-05-21T19:29:07.121Z,25.24
2023-05-21T19:31:33.555Z,25.20
2023-05-21T19:33:59.967Z,25.25
2023-05-21T19:36:29.085Z,25.25
2023-05-21T19:38:57.218Z,25.25
2023-05-21T19:41:23.629Z,25.22
2023-05-21T19:43:50.057Z,25.24
2023-05-21T19:46:19.847Z,25.23
2023-05-21T19:48:46.912Z,25.24
2023-05-21T19:51:13.318Z,25.20
2023-05-21T19:53:39.719Z,25.25
2023-05-21T19:56:06.353Z,25.19
2023-05-21T19:58:32.794Z,25.24
2023-05-21T20:00:59.329Z,25.22
2023-05-21T20:03:26.016Z,25.24
2023-05-21T20:05:52.407Z,25.24
2023-05-21T20:08:18.772Z,25.18
2023-05-21T20:10:45.177Z,25.15
2023-05-21T20:13:11.593Z,25.21
2023-05-21T20:15:38.020Z,25.20
2023-05-21T20:18:04.453Z,25.17
2023-05-21T20:20:30.891Z,25.19
2023-05-21T20:22:57.358Z,25.20
2023-05-21T20:25:23.784Z,25.15
2023-05-21T20:27:50.218Z,25.18
2023-05-21T20:30:16.617Z,25.16
2023-05-21T20:32:43.101Z,25.21
2023-05-21T20:35:09.532Z,25.19
2023-05-21T20:37:35.900Z,25.18
2023-05-21T20:40:02.340Z,25.21
2023-05-21T20:42:28.765Z,25.19
2023-05-21T20:44:55.229Z,25.18
2023-05-21T20:47:21.627Z,25.18
2023-05-21T20:49:48.114Z,25.20
2023-05-21T20:52:14.556Z,25.20
2023-05-21T20:54:40.930Z,25.16
2023-05-21T20:57:07.300Z,25.13
2023-05-21T20:59:33.689Z,25.14
2023-05-21T21:02:00.176Z,25.17
2023-05-21T21:04:26.568Z,25.16
2023-05-21T21:06:52.946Z,25.11
2023-05-21T21:09:19.313Z,25.16
2023-05-21T21:11:45.707Z,25.14
2023-05-21T21:14:12.111Z,25.11
2023-05-21T21:16:38.583Z,25.15
2023-05-21T21:19:05.205Z,25.15
2023-05-21T21:21:31.784Z,25.18
2023-05-21T21:23:58.314Z,25.12
2023-05-21T21:26:24.823Z,25.09
2023-05-21T21:28:51.242Z,25.14
2023-05-21T21:31:17.626Z,25.11
2023-05-21T21:33:44.058Z,25.06
2023-05-21T21:36:10.530Z,25.13
2023-05-21T21:38:36.968Z,25.12
2023-05-21T21:41:03.377Z,25.13
2023-05-21T21:43:29.795Z,25.11
2023-05-21T21:45:56.178Z,25.12
2023-05-21T21:48:22.581Z,25.12
2023-05-21T21:50:48.992Z,25.09
2023-05-21T21:53:15.408Z,25.06
2023-05-21T21:55:41.842Z,25.06
2023-05-21T21:58:08.503Z,25.07
2023-05-21T22:00:34.926Z,25.09
2023-05-21T22:03:01.390Z,25.10
2023-05-21T22:05:27.841Z,25.10
2023-05-21T22:07:54.236Z,25.10
2023-05-21T22:10:20.627Z,25.08
2023-05-21T22:12:47.016Z,25.11
2023-05-21T22:15:13.401Z,25.11
2023-05-21T22:17:40.005Z,25.08
2023-05-21T22:20:06.606Z,25.03
2023-05-21T22:22:32.999Z,25.06
2023-05-21T22:24:59.428Z,25.11
2023-05-21T22:27:25.857Z,25.05
2023-05-21T22:29:52.309Z,25.10
2023-05-21T22:32:18.786Z,25.07
2023-05-21T22:34:45.291Z,25.04
2023-05-21T22:37:11.711Z,25.07
2023-05-21T22:39:38.088Z,25.09
2023-05-21T22:42:04.495Z,25.06
2023-05-21T22:44:30.871Z,25.10
2023-05-21T22:46:57.283Z,25.02
2023-05-21T22:49:23.726Z,25.07
2023-05-21T22:51:50.127Z,25.03
2023-05-21T22:54:16.630Z,25.05
2023-05-21T22:56:43.103Z,25.05
2023-05-21T22:59:09.607Z,25.04
2023-05-21T23:01:36.016Z,25.04
2023-05-21T23:04:02.387Z,25.05
2023-05-21T23:06:28.787Z,25.06
2023-05-21T23:08:55.280Z,25.06
2023-05-21T23:11:21.703Z,25.02
2023-05-21T23:13:48.068Z,25.03
2023-05-21T23:16:14.494Z,25.04
2023-05-21T23:18:40.919Z,24.99
2023-05-21T23:21:07.331Z,25.02
2023-05-21T23:23:33.760Z,25.02
2023-05-21T23:26:00.132Z,25.00
2023-05-21T23:28:26.545Z,25.02
2023-05-21T23:30:52.944Z,25.00
2023-05-21T23:33:19.354Z,25.00
2023-05-21T23:35:45.792Z,24.99
2023-05-21T23:38:12.212Z,24.97
2023-05-21T23:40:38.833Z,25.01
2023-05-21T23:43:05.417Z,24.97
2023-05-21T23:45:31.873Z,24.99
2023-05-21T23:47:58.396Z,25.00
2023-05-21T23:50:24.828Z,24.99
2023-05-21T23:52:51.333Z,24.98
2023-05-21T23:55:17.705Z,24.97
2023-05-21T23:57:44.093Z,24.97
